Time;durP1;ratioP1;P1;durP2;ratioP2;P2;SDS_P1;SDS_P2;PMS_P1;PMS_P2;Temp;Humidity;BMP_temperature;BMP_pressure;BME280_temperature;BME280_humidity;BME280_pressure;Samples;Min_cycle;Max_cycle;Signal;HPM_P1;HPM_P2
2023/08/04 00:01:42;;;;;;;12.45;6.97;;;;;;;;;;5113231;28;20484;-60
2023/08/04 00:04:09;;;;;;;11.75;7.80;;;;;;;;;;5113419;28;20058;-60
2023/08/04 00:06:36;;;;;;;9.93;6.30;;;;;;;;;;5113440;28;20484;-60
2023/08/04 00:09:04;;;;;;;10.27;5.75;;;;;;;;;;5113725;28;20476;-60
2023/08/04 00:11:30;;;;;;;9.75;5.63;;;;;;;;;;5113336;27;20070;-60
2023/08/04 00:13:57;;;;;;;12.52;6.38;;;;;;;;;;5093966;28;20130;-59
2023/08/04 00:16:24;;;;;;;10.80;5.72;;;;;;;;;;5112352;27;20052;-59
2023/08/04 00:18:51;;;;;;;10.57;5.85;;;;;;;;;;5112957;28;20048;-59
2023/08/04 00:21:17;;;;;;;8.40;5.35;;;;;;;;;;5122148;27;20055;-59
2023/08/04 00:23:44;;;;;;;11.90;5.88;;;;;;;;;;5133865;27;20062;-59
2023/08/04 00:26:12;;;;;;;12.30;6.75;;;;;;;;;;5134086;27;20060;-59
2023/08/04 00:28:39;;;;;;;11.07;6.05;;;;;;;;;;5114373;27;20049;-59
2023/08/04 00:31:06;;;;;;;14.63;7.30;;;;;;;;;;5113004;28;20051;-59
2023/08/04 00:33:33;;;;;;;9.93;6.32;;;;;;;;;;5093432;28;20392;-59
2023/08/04 00:35:59;;;;;;;11.70;5.88;;;;;;;;;;5092282;28;20048;-59
2023/08/04 00:38:26;;;;;;;10.10;6.20;;;;;;;;;;5092739;28;20048;-59
2023/08/04 00:40:53;;;;;;;11.77;5.85;;;;;;;;;;5092809;28;20056;-58
2023/08/04 00:43:21;;;;;;;12.23;6.60;;;;;;;;;;5089556;28;20063;-59
2023/08/04 00:45:48;;;;;;;10.80;5.45;;;;;;;;;;5091051;28;20055;-58
2023/08/04 00:48:15;;;;;;;9.50;5.97;;;;;;;;;;5085579;28;20404;-59
2023/08/04 00:50:42;;;;;;;12.80;6.65;;;;;;;;;;5092467;28;20048;-60
2023/08/04 00:53:09;;;;;;;8.63;5.30;;;;;;;;;;5092277;28;20060;-60
2023/08/04 00:55:36;;;;;;;11.57;5.75;;;;;;;;;;5091727;28;20499;-59
2023/08/04 00:58:03;;;;;;;10.75;6.13;;;;;;;;;;5092890;28;20059;-59
2023/08/04 01:00:31;;;;;;;9.65;6.47;;;;;;;;;;5104791;28;20051;-59
2023/08/04 01:02:58;;;;;;;11.15;6.00;;;;;;;;;;5084064;28;20059;-59
2023/08/04 01:05:28;;;;;;;11.50;5.95;;;;;;;;;;5091862;28;20524;-59
2023/08/04 01:07:57;;;;;;;9.73;6.80;;;;;;;;;;5092560;28;20055;-59
2023/08/04 01:10:26;;;;;;;12.95;6.50;;;;;;;;;;5090953;28;20048;-59
2023/08/04 01:12:57;;;;;;;11.88;6.38;;;;;;;;;;5082965;28;20052;-59
2023/08/04 01:15:24;;;;;;;12.40;6.43;;;;;;;;;;5094911;28;20413;-59
2023/08/04 01:17:52;;;;;;;11.18;6.75;;;;;;;;;;5096492;28;20052;-60
2023/08/04 01:20:19;;;;;;;10.45;6.72;;;;;;;;;;5096474;28;20048;-59
2023/08/04 01:22:47;;;;;;;12.27;6.72;;;;;;;;;;5096439;28;20052;-59
2023/08/04 01:25:14;;;;;;;13.23;6.35;;;;;;;;;;5114069;28;20051;-58
2023/08/04 01:27:42;;;;;;;12.57;6.15;;;;;;;;;;5098593;28;20052;-59
2023/08/04 01:30:12;;;;;;;12.77;6.43;;;;;;;;;;5096353;28;20404;-59
2023/08/04 01:32:38;;;;;;;12.05;6.50;;;;;;;;;;5099065;28;20055;-59
2023/08/04 01:35:09;;;;;;;10.43;6.75;;;;;;;;;;5116841;28;20054;-59
2023/08/04 01:37:36;;;;;;;9.93;5.55;;;;;;;;;;5116347;28;20052;-58
2023/08/04 01:40:06;;;;;;;15.55;7.43;;;;;;;;;;5116476;28;20043;-59
2023/08/04 01:42:33;;;;;;;12.90;6.50;;;;;;;;;;5115942;27;20058;-59
2023/08/04 01:45:00;;;;;;;12.15;6.38;;;;;;;;;;5114605;28;20151;-59
2023/08/04 01:47:26;;;;;;;13.02;7.70;;;;;;;;;;5116184;28;20380;-58
2023/08/04 01:49:53;;;;;;;16.70;7.78;;;;;;;;;;5116125;28;20377;-59
2023/08/04 01:52:20;;;;;;;17.35;7.78;;;;;;;;;;5115847;28;20075;-59
2023/08/04 01:54:47;;;;;;;10.60;6.72;;;;;;;;;;5116189;28;20047;-59
2023/08/04 01:57:15;;;;;;;10.18;6.88;;;;;;;;;;5116174;27;20472;-59
2023/08/04 01:59:42;;;;;;;13.85;8.25;;;;;;;;;;5116148;28;20484;-59
2023/08/04 02:02:09;;;;;;;13.75;8.60;;;;;;;;;;5116300;28;20380;-59
2023/08/04 02:04:38;;;;;;;11.77;7.85;;;;;;;;;;5114218;27;20055;-59
2023/08/04 02:07:05;;;;;;;9.50;6.90;;;;;;;;;;5115820;28;20051;-59
2023/08/04 02:09:33;;;;;;;11.00;7.22;;;;;;;;;;5115415;28;20488;-59
2023/08/04 02:12:00;;;;;;;11.13;7.05;;;;;;;;;;5116605;27;20055;-59
2023/08/04 02:14:32;;;;;;;12.98;7.25;;;;;;;;;;5115444;28;20056;-59
2023/08/04 02:16:58;;;;;;;10.35;6.80;;;;;;;;;;5115480;28;20475;-59
2023/08/04 02:19:25;;;;;;;9.35;7.10;;;;;;;;;;5115208;28;20050;-59
2023/08/04 02:21:52;;;;;;;9.15;7.22;;;;;;;;;;5115167;28;20361;-58
2023/08/04 02:24:19;;;;;;;12.30;8.15;;;;;;;;;;5115111;28;20392;-59
2023/08/04 02:26:46;;;;;;;12.25;7.78;;;;;;;;;;5115367;27;20051;-58
2023/08/04 02:29:12;;;;;;;10.88;7.57;;;;;;;;;;5115118;28;20051;-59
2023/08/04 02:31:41;;;;;;;8.63;7.68;;;;;;;;;;5115581;28;20070;-59
2023/08/04 02:34:10;;;;;;;9.90;7.72;;;;;;;;;;5115734;28;20055;-59
2023/08/04 02:36:37;;;;;;;11.90;8.23;;;;;;;;;;5115434;28;20052;-59
2023/08/04 02:39:04;;;;;;;11.18;8.43;;;;;;;;;;5115576;28;20055;-59
2023/08/04 02:41:30;;;;;;;12.10;8.65;;;;;;;;;;5112820;27;20056;-59
2023/08/04 02:43:57;;;;;;;11.80;8.23;;;;;;;;;;5114585;28;20044;-58
2023/08/04 02:46:25;;;;;;;10.00;7.20;;;;;;;;;;5114817;28;20047;-59
2023/08/04 02:48:59;;;;;;;12.30;7.97;;;;;;;;;;5114382;28;20047;-59
2023/08/04 02:51:25;;;;;;;9.50;7.72;;;;;;;;;;5113379;28;20059;-59
2023/08/04 02:53:52;;;;;;;12.52;8.75;;;;;;;;;;5114385;28;20051;-58
2023/08/04 02:56:19;;;;;;;9.38;7.80;;;;;;;;;;5114162;27;20056;-59
2023/08/04 02:58:52;;;;;;;12.30;8.55;;;;;;;;;;5115005;28;20495;-59
2023/08/04 03:01:19;;;;;;;10.82;8.18;;;;;;;;;;5115065;28;20412;-59
2023/08/04 03:03:45;;;;;;;9.45;7.55;;;;;;;;;;5114530;28;20063;-59
2023/08/04 03:06:14;;;;;;;12.02;8.50;;;;;;;;;;5114560;28;20056;-59
2023/08/04 03:08:40;;;;;;;9.65;8.65;;;;;;;;;;5115116;28;20066;-59
2023/08/04 03:11:11;;;;;;;10.48;8.90;;;;;;;;;;5111999;27;20052;-59
2023/08/04 03:13:37;;;;;;;11.38;8.57;;;;;;;;;;5114216;28;20058;-58
2023/08/04 03:16:04;;;;;;;12.48;9.70;;;;;;;;;;5114272;28;20056;-58
2023/08/04 03:18:32;;;;;;;11.45;8.70;;;;;;;;;;5114618;28;20056;-58
2023/08/04 03:21:01;;;;;;;11.90;9.07;;;;;;;;;;5114305;28;20456;-58
2023/08/04 03:23:30;;;;;;;12.73;10.20;;;;;;;;;;5114488;28;20070;-58
2023/08/04 03:25:56;;;;;;;12.50;9.68;;;;;;;;;;5113492;27;20047;-58
2023/08/04 03:28:23;;;;;;;15.35;11.68;;;;;;;;;;5103115;28;20059;-58
2023/08/04 03:30:50;;;;;;;12.20;10.40;;;;;;;;;;5093729;28;20397;-58
2023/08/04 03:33:17;;;;;;;14.65;10.05;;;;;;;;;;5120482;27;20059;-58
2023/08/04 03:35:43;;;;;;;18.20;10.18;;;;;;;;;;5134119;27;20058;-58
2023/08/04 03:38:11;;;;;;;15.15;11.93;;;;;;;;;;5133935;27;20399;-58
2023/08/04 03:40:39;;;;;;;12.73;10.50;;;;;;;;;;5130187;27;20052;-58
2023/08/04 03:43:06;;;;;;;15.23;12.82;;;;;;;;;;5113650;28;20052;-58
2023/08/04 03:45:33;;;;;;;15.65;10.85;;;;;;;;;;5113851;28;20056;-58
2023/08/04 03:48:00;;;;;;;16.10;12.60;;;;;;;;;;5113914;28;20055;-58
2023/08/04 03:50:27;;;;;;;16.23;12.35;;;;;;;;;;5113590;28;20047;-58
2023/08/04 03:52:53;;;;;;;16.88;13.35;;;;;;;;;;5113985;28;20048;-58
2023/08/04 03:55:20;;;;;;;19.85;13.85;;;;;;;;;;5114082;27;20067;-58
2023/08/04 03:57:48;;;;;;;15.73;12.43;;;;;;;;;;5109513;27;20059;-58
2023/08/04 04:00:15;;;;;;;14.75;12.93;;;;;;;;;;5108118;27;20043;-58
2023/08/04 04:02:42;;;;;;;18.48;14.25;;;;;;;;;;5113589;28;20074;-58
2023/08/04 04:05:09;;;;;;;16.98;13.35;;;;;;;;;;5113667;28;20062;-58
2023/08/04 04:07:36;;;;;;;18.10;15.25;;;;;;;;;;5113172;28;20144;-58
2023/08/04 04:10:03;;;;;;;19.60;13.95;;;;;;;;;;5113493;28;20052;-58
2023/08/04 04:12:30;;;;;;;19.38;15.38;;;;;;;;;;5109700;27;20051;-59
2023/08/04 04:14:58;;;;;;;22.80;17.77;;;;;;;;;;5111708;28;20055;-58
2023/08/04 04:17:25;;;;;;;21.75;15.88;;;;;;;;;;5112968;28;20052;-58
2023/08/04 04:19:51;;;;;;;21.67;16.08;;;;;;;;;;5112944;28;20047;-59
2023/08/04 04:22:18;;;;;;;23.33;17.08;;;;;;;;;;5113378;28;20056;-59
2023/08/04 04:24:45;;;;;;;21.08;16.33;;;;;;;;;;5113048;28;20047;-58
2023/08/04 04:27:12;;;;;;;24.27;17.17;;;;;;;;;;5112512;27;20059;-59
2023/08/04 04:29:39;;;;;;;21.23;15.93;;;;;;;;;;5112499;28;20059;-59
2023/08/04 04:32:07;;;;;;;23.30;16.60;;;;;;;;;;5113009;28;20416;-59
2023/08/04 04:34:35;;;;;;;25.42;17.30;;;;;;;;;;5112649;28;20058;-59
2023/08/04 04:37:01;;;;;;;23.42;16.98;;;;;;;;;;5113110;28;20070;-58
2023/08/04 04:39:28;;;;;;;23.48;16.38;;;;;;;;;;5113041;28;20054;-58
2023/08/04 04:41:55;;;;;;;23.48;16.92;;;;;;;;;;5112161;27;20448;-59
2023/08/04 04:44:22;;;;;;;26.55;18.05;;;;;;;;;;5112787;28;20411;-59
2023/08/04 04:46:48;;;;;;;25.00;17.35;;;;;;;;;;5112688;28;20590;-59
2023/08/04 04:49:17;;;;;;;27.52;18.20;;;;;;;;;;5111911;28;20498;-59
2023/08/04 04:51:43;;;;;;;28.65;18.95;;;;;;;;;;5112255;28;20051;-59
2023/08/04 04:54:10;;;;;;;22.15;18.05;;;;;;;;;;5112893;28;20488;-59
2023/08/04 04:56:38;;;;;;;22.80;16.85;;;;;;;;;;5111252;28;20379;-58
2023/08/04 04:59:05;;;;;;;25.77;19.70;;;;;;;;;;5112552;28;20515;-58
2023/08/04 05:01:32;;;;;;;24.08;17.88;;;;;;;;;;5112712;28;20052;-58
2023/08/04 05:03:59;;;;;;;29.65;20.05;;;;;;;;;;5112597;28;20056;-58
2023/08/04 05:06:27;;;;;;;26.27;19.02;;;;;;;;;;5112519;28;20456;-58
2023/08/04 05:08:53;;;;;;;24.67;18.15;;;;;;;;;;5112717;28;20052;-59
2023/08/04 05:11:20;;;;;;;29.05;19.58;;;;;;;;;;5109411;28;20043;-59
2023/08/04 05:13:47;;;;;;;23.42;18.42;;;;;;;;;;5110610;28;20051;-59
2023/08/04 05:16:14;;;;;;;24.17;18.38;;;;;;;;;;5112080;28;20074;-59
2023/08/04 05:18:40;;;;;;;32.60;21.02;;;;;;;;;;5112231;28;20078;-59
2023/08/04 05:21:07;;;;;;;29.77;20.25;;;;;;;;;;5112189;28;20047;-59
2023/08/04 05:23:35;;;;;;;28.05;20.13;;;;;;;;;;5110308;28;20051;-59
2023/08/04 05:26:02;;;;;;;27.63;18.90;;;;;;;;;;5103035;28;20052;-59
2023/08/04 05:28:30;;;;;;;31.65;21.15;;;;;;;;;;5098579;28;20048;-59
2023/08/04 05:30:57;;;;;;;30.58;20.70;;;;;;;;;;5113315;28;20047;-59
2023/08/04 05:33:25;;;;;;;26.52;19.45;;;;;;;;;;5109316;28;20063;-59
2023/08/04 05:35:52;;;;;;;33.20;21.60;;;;;;;;;;5109123;28;20048;-59
2023/08/04 05:38:18;;;;;;;24.77;18.42;;;;;;;;;;5112107;28;20058;-58
2023/08/04 05:40:47;;;;;;;29.02;19.83;;;;;;;;;;5113653;28;20048;-59
2023/08/04 05:43:15;;;;;;;27.35;20.17;;;;;;;;;;5109089;28;20048;-58
2023/08/04 05:45:42;;;;;;;28.50;19.25;;;;;;;;;;5111414;28;20060;-58
2023/08/04 05:48:09;;;;;;;25.63;18.75;;;;;;;;;;5114305;28;20052;-58
2023/08/04 05:50:36;;;;;;;25.20;19.38;;;;;;;;;;5132494;28;20051;-58
2023/08/04 05:53:03;;;;;;;28.02;20.30;;;;;;;;;;5113296;28;20500;-58
2023/08/04 05:55:30;;;;;;;24.70;18.50;;;;;;;;;;5110171;28;20056;-59
2023/08/04 05:57:58;;;;;;;28.10;18.67;;;;;;;;;;5110587;28;20054;-59
2023/08/04 06:00:25;;;;;;;28.02;20.45;;;;;;;;;;5112435;28;20496;-58
2023/08/04 06:02:52;;;;;;;24.35;17.85;;;;;;;;;;5116296;28;20059;-58
2023/08/04 06:05:19;;;;;;;24.15;17.08;;;;;;;;;;5115778;28;20055;-58
2023/08/04 06:07:47;;;;;;;24.05;18.13;;;;;;;;;;5113706;27;20044;-58
2023/08/04 06:10:16;;;;;;;30.23;18.35;;;;;;;;;;5113987;28;20048;-59
2023/08/04 06:12:42;;;;;;;27.05;18.13;;;;;;;;;;5114787;27;20151;-58
2023/08/04 06:15:11;;;;;;;23.95;17.55;;;;;;;;;;5114869;28;20056;-58
2023/08/04 06:17:38;;;;;;;21.67;16.60;;;;;;;;;;5115282;28;20059;-59
2023/08/04 06:20:05;;;;;;;26.02;17.33;;;;;;;;;;5115643;28;20051;-59
2023/08/04 06:22:32;;;;;;;22.00;15.93;;;;;;;;;;5115276;28;20055;-59
2023/08/04 06:24:58;;;;;;;24.38;16.13;;;;;;;;;;5115887;27;20048;-59
2023/08/04 06:27:25;;;;;;;20.70;16.52;;;;;;;;;;5134175;27;20055;-59
2023/08/04 06:29:52;;;;;;;22.65;16.50;;;;;;;;;;5135857;27;20056;-58
2023/08/04 06:32:20;;;;;;;19.90;14.98;;;;;;;;;;5135499;27;20047;-58
2023/08/04 06:34:47;;;;;;;28.13;15.90;;;;;;;;;;5135741;27;20483;-58
2023/08/04 06:37:14;;;;;;;23.15;16.98;;;;;;;;;;5115315;27;20051;-59
2023/08/04 06:39:41;;;;;;;23.90;16.10;;;;;;;;;;5113075;27;20058;-59
2023/08/04 06:42:08;;;;;;;20.20;14.85;;;;;;;;;;5115422;28;20395;-59
2023/08/04 06:44:34;;;;;;;22.92;15.40;;;;;;;;;;5114105;28;20048;-59
2023/08/04 06:47:01;;;;;;;19.35;16.00;;;;;;;;;;5113968;28;20393;-59
2023/08/04 06:49:30;;;;;;;19.73;14.70;;;;;;;;;;5114974;28;20056;-59
2023/08/04 06:51:56;;;;;;;21.80;16.60;;;;;;;;;;5114387;28;20044;-63
2023/08/04 06:54:23;;;;;;;17.48;15.15;;;;;;;;;;5111528;27;20055;-63
2023/08/04 06:56:50;;;;;;;24.42;16.67;;;;;;;;;;5100313;28;20047;-63
2023/08/04 06:59:17;;;;;;;20.88;15.38;;;;;;;;;;5099474;28;20047;-63
2023/08/04 07:01:43;;;;;;;21.02;15.30;;;;;;;;;;5103015;28;20047;-62
2023/08/04 07:04:10;;;;;;;18.73;14.25;;;;;;;;;;5097319;28;20503;-61
2023/08/04 07:06:38;;;;;;;20.92;14.70;;;;;;;;;;5103360;28;20051;-63
2023/08/04 07:09:05;;;;;;;19.95;15.32;;;;;;;;;;5101636;28;20047;-62
2023/08/04 07:11:32;;;;;;;21.70;15.15;;;;;;;;;;5097923;28;20052;-63
2023/08/04 07:13:58;;;;;;;19.70;14.40;;;;;;;;;;5107410;28;20055;-62
2023/08/04 07:16:25;;;;;;;18.63;14.65;;;;;;;;;;5100054;28;20408;-63
2023/08/04 07:18:52;;;;;;;18.52;11.98;;;;;;;;;;5097244;28;20047;-63
2023/08/04 07:21:19;;;;;;;21.17;11.63;;;;;;;;;;5095528;28;20048;-63
2023/08/04 07:23:47;;;;;;;18.20;12.45;;;;;;;;;;5105956;28;20044;-62
2023/08/04 07:26:14;;;;;;;15.70;9.63;;;;;;;;;;5102590;28;20387;-63
2023/08/04 07:28:40;;;;;;;14.00;10.50;;;;;;;;;;5096832;28;20047;-63
2023/08/04 07:31:08;;;;;;;15.27;11.30;;;;;;;;;;5100190;28;20059;-63
2023/08/04 07:33:35;;;;;;;17.70;13.38;;;;;;;;;;5095962;28;20999;-63
2023/08/04 07:36:02;;;;;;;17.33;12.80;;;;;;;;;;5097134;28;20067;-63
2023/08/04 07:38:30;;;;;;;12.65;10.75;;;;;;;;;;5098245;28;20484;-63
2023/08/04 07:40:58;;;;;;;10.75;7.53;;;;;;;;;;5102122;28;20054;-63
2023/08/04 07:43:25;;;;;;;11.70;8.50;;;;;;;;;;5096073;28;20051;-64
2023/08/04 07:45:53;;;;;;;11.73;8.35;;;;;;;;;;5101883;27;20048;-63
2023/08/04 07:48:20;;;;;;;12.07;8.57;;;;;;;;;;5095748;28;20137;-63
2023/08/04 07:50:47;;;;;;;10.77;7.05;;;;;;;;;;5089239;28;20056;-64
2023/08/04 07:53:14;;;;;;;9.48;6.75;;;;;;;;;;5102178;28;20048;-63
2023/08/04 07:55:41;;;;;;;12.18;7.28;;;;;;;;;;5098011;28;20056;-63
2023/08/04 07:58:09;;;;;;;10.27;6.43;;;;;;;;;;5094769;28;20136;-63
2023/08/04 08:00:36;;;;;;;8.70;6.17;;;;;;;;;;5100249;28;20059;-63
2023/08/04 08:03:03;;;;;;;8.93;6.35;;;;;;;;;;5099698;28;20052;-63
2023/08/04 08:05:30;;;;;;;11.05;7.25;;;;;;;;;;5098594;28;20048;-63
2023/08/04 08:07:56;;;;;;;10.48;6.85;;;;;;;;;;5099288;27;21806;-63
2023/08/04 08:10:23;;;;;;;10.35;6.65;;;;;;;;;;5102720;28;20055;-63
2023/08/04 08:12:50;;;;;;;7.55;5.70;;;;;;;;;;5097368;28;20087;-64
2023/08/04 08:15:18;;;;;;;7.78;5.57;;;;;;;;;;5096736;28;20090;-64
2023/08/04 08:17:45;;;;;;;7.97;5.63;;;;;;;;;;5097303;28;20506;-63
2023/08/04 08:20:12;;;;;;;7.43;5.93;;;;;;;;;;5101737;28;20412;-63
2023/08/04 08:22:39;;;;;;;9.10;7.07;;;;;;;;;;5104130;28;20476;-63
2023/08/04 08:25:06;;;;;;;8.57;6.20;;;;;;;;;;5100647;28;20074;-63
2023/08/04 08:27:33;;;;;;;10.63;7.72;;;;;;;;;;5098091;28;20428;-63
2023/08/04 08:29:59;;;;;;;9.48;7.70;;;;;;;;;;5107672;27;20063;-63
2023/08/04 08:32:27;;;;;;;10.77;7.60;;;;;;;;;;5094636;27;20083;-63
2023/08/04 08:34:54;;;;;;;11.63;8.98;;;;;;;;;;5090129;28;20048;-64
2023/08/04 08:37:21;;;;;;;11.23;8.70;;;;;;;;;;5092617;28;20055;-63
2023/08/04 08:39:48;;;;;;;11.05;8.75;;;;;;;;;;5103498;27;20051;-63
2023/08/04 08:42:15;;;;;;;12.90;8.93;;;;;;;;;;5099967;28;20052;-62
2023/08/04 08:44:41;;;;;;;10.95;7.55;;;;;;;;;;5098694;28;20048;-63
2023/08/04 08:47:08;;;;;;;9.10;7.38;;;;;;;;;;5091741;28;20507;-63
2023/08/04 08:49:39;;;;;;;10.15;7.53;;;;;;;;;;5101357;28;20078;-64
2023/08/04 08:52:07;;;;;;;10.27;7.18;;;;;;;;;;5106719;28;20360;-63
2023/08/04 08:54:35;;;;;;;6.63;5.95;;;;;;;;;;5103787;28;20534;-63
2023/08/04 08:57:03;;;;;;;8.18;5.60;;;;;;;;;;5105004;28;20399;-63
2023/08/04 08:59:29;;;;;;;7.25;5.75;;;;;;;;;;5101825;28;20054;-64
2023/08/04 09:01:57;;;;;;;7.85;6.32;;;;;;;;;;5107283;28;20055;-63
2023/08/04 09:04:24;;;;;;;6.50;5.82;;;;;;;;;;5087079;28;20052;-63
2023/08/04 09:06:52;;;;;;;8.75;5.88;;;;;;;;;;5094341;28;20048;-64
2023/08/04 09:09:18;;;;;;;6.97;5.00;;;;;;;;;;5096629;27;20055;-63
2023/08/04 09:11:45;;;;;;;9.98;5.18;;;;;;;;;;5095031;28;20059;-65
2023/08/04 09:14:12;;;;;;;6.70;5.28;;;;;;;;;;5097960;28;20056;-64
2023/08/04 09:16:39;;;;;;;7.53;5.63;;;;;;;;;;5093584;28;20051;-65
2023/08/04 09:19:07;;;;;;;6.38;5.75;;;;;;;;;;5098871;28;20418;-66
2023/08/04 09:21:34;;;;;;;7.38;5.70;;;;;;;;;;5099772;28;20408;-64
2023/08/04 09:24:03;;;;;;;6.55;5.05;;;;;;;;;;5102357;28;20060;-65
2023/08/04 09:26:30;;;;;;;;;;;;;;;;;;5094394;28;20087;-63
2023/08/04 09:29:04;;;;;;;7.47;5.00;;;;;;;;;;5099049;28;19920;-67
2023/08/04 09:31:34;;;;;;;7.05;4.38;;;;;;;;;;5086230;28;20066;-65
2023/08/04 09:34:03;;;;;;;7.95;4.30;;;;;;;;;;5083645;28;20047;-65
2023/08/04 09:36:30;;;;;;;7.10;4.55;;;;;;;;;;5088806;28;20048;-67
2023/08/04 09:39:04;;;;;;;8.05;5.40;;;;;;;;;;5088760;28;20052;-65
2023/08/04 09:41:32;;;;;;;7.03;5.55;;;;;;;;;;5083685;28;20056;-63
2023/08/04 09:44:04;;;;;;;9.13;5.32;;;;;;;;;;5086556;28;20058;-64
2023/08/04 09:46:30;;;;;;;12.18;6.68;;;;;;;;;;5084028;28;20064;-64
2023/08/04 09:48:58;;;;;;;7.10;5.07;;;;;;;;;;5088973;28;20516;-64
2023/08/04 09:51:25;;;;;;;7.80;5.45;;;;;;;;;;5088592;28;20059;-63
2023/08/04 09:53:54;;;;;;;8.43;5.55;;;;;;;;;;5088557;28;20055;-64
2023/08/04 09:56:23;;;;;;;7.38;5.63;;;;;;;;;;5082040;28;20071;-63
2023/08/04 09:58:50;;;;;;;9.65;6.20;;;;;;;;;;5084846;28;20051;-63
2023/08/04 10:01:18;;;;;;;7.97;5.82;;;;;;;;;;5085276;28;20416;-62
2023/08/04 10:03:46;;;;;;;7.15;5.63;;;;;;;;;;5087573;28;20484;-62
2023/08/04 10:06:14;;;;;;;10.32;5.28;;;;;;;;;;5085723;28;20400;-63
2023/08/04 10:08:40;;;;;;;7.22;4.75;;;;;;;;;;5083615;28;20051;-63
2023/08/04 10:11:08;;;;;;;6.65;4.38;;;;;;;;;;5086120;28;20056;-63
2023/08/04 10:13:38;;;;;;;5.93;4.03;;;;;;;;;;5086618;28;20614;-64
2023/08/04 10:16:06;;;;;;;5.95;3.72;;;;;;;;;;5081991;28;20058;-63
2023/08/04 10:18:49;;;;;;;6.22;3.40;;;;;;;;;;5082921;28;20051;-64
2023/08/04 10:21:17;;;;;;;7.13;3.45;;;;;;;;;;5085138;28;20056;-63
2023/08/04 10:23:44;;;;;;;4.50;2.92;;;;;;;;;;5086997;28;20055;-63
2023/08/04 10:26:11;;;;;;;4.80;3.15;;;;;;;;;;5086824;28;20485;-63
2023/08/04 10:28:53;;;;;;;4.88;3.10;;;;;;;;;;5084204;28;20059;-63
2023/08/04 10:31:21;;;;;;;5.47;3.72;;;;;;;;;;5087565;28;20377;-62
2023/08/04 10:34:14;;;;;;;4.38;3.33;;;;;;;;;;5109809;28;20055;-63
2023/08/04 10:36:53;;;;;;;5.45;3.38;;;;;;;;;;5109970;28;20051;-62
2023/08/04 10:39:25;;;;;;;5.03;3.35;;;;;;;;;;5109343;28;20073;-62
2023/08/04 10:41:52;;;;;;;4.95;3.22;;;;;;;;;;5104716;27;20044;-63
2023/08/04 10:44:19;;;;;;;5.72;3.42;;;;;;;;;;5108623;28;20492;-63
2023/08/04 10:46:49;;;;;;;6.53;3.20;;;;;;;;;;5108642;28;20476;-63
2023/08/04 10:49:16;;;;;;;5.55;3.58;;;;;;;;;;5105921;28;20075;-62
2023/08/04 10:51:45;;;;;;;4.43;2.90;;;;;;;;;;5108431;28;20376;-63
2023/08/04 10:54:12;;;;;;;5.63;3.00;;;;;;;;;;5107902;27;20063;-63
2023/08/04 10:56:39;;;;;;;4.78;3.00;;;;;;;;;;5108933;28;20058;-63
2023/08/04 10:59:07;;;;;;;4.40;2.78;;;;;;;;;;5114972;28;20062;-61
2023/08/04 11:01:34;;;;;;;3.42;2.38;;;;;;;;;;5121208;27;20055;-61
2023/08/04 11:04:02;;;;;;;5.28;2.78;;;;;;;;;;5115750;28;20051;-61
2023/08/04 11:06:29;;;;;;;4.57;1.90;;;;;;;;;;5105128;27;20070;-63
2023/08/04 11:08:56;;;;;;;3.45;1.63;;;;;;;;;;5125568;27;20457;-63
2023/08/04 11:11:23;;;;;;;3.70;1.70;;;;;;;;;;5110041;27;20071;-63
2023/08/04 11:13:50;;;;;;;4.15;1.90;;;;;;;;;;5114521;28;20408;-64
2023/08/04 11:16:17;;;;;;;3.70;1.70;;;;;;;;;;5114956;28;20253;-63
2023/08/04 11:18:44;;;;;;;3.38;2.00;;;;;;;;;;5114424;28;20044;-64
2023/08/04 11:21:15;;;;;;;3.33;1.70;;;;;;;;;;5092548;28;20047;-63
2023/08/04 11:23:41;;;;;;;4.30;1.80;;;;;;;;;;5097383;28;20048;-63
2023/08/04 11:26:08;;;;;;;3.35;1.77;;;;;;;;;;5098061;27;20054;-63
2023/08/04 11:28:35;;;;;;;5.03;1.63;;;;;;;;;;5100885;28;20062;-63
2023/08/04 11:31:05;;;;;;;5.13;1.85;;;;;;;;;;5104492;28;20048;-63
2023/08/04 11:33:32;;;;;;;3.70;1.83;;;;;;;;;;5105644;28;20055;-63
2023/08/04 11:36:00;;;;;;;6.82;1.60;;;;;;;;;;5107562;28;20424;-63
2023/08/04 11:38:28;;;;;;;2.90;1.50;;;;;;;;;;5097400;28;20060;-63
2023/08/04 11:40:56;;;;;;;5.40;2.30;;;;;;;;;;5102329;28;20059;-64
2023/08/04 11:43:23;;;;;;;2.97;1.75;;;;;;;;;;5104007;28;20431;-63
2023/08/04 11:45:49;;;;;;;3.15;1.40;;;;;;;;;;5103916;28;20499;-63
2023/08/04 11:48:17;;;;;;;3.35;1.45;;;;;;;;;;5104651;28;20052;-63
2023/08/04 11:50:44;;;;;;;3.27;1.67;;;;;;;;;;5111823;28;20054;-63
2023/08/04 11:53:14;;;;;;;3.83;1.83;;;;;;;;;;5096844;28;20054;-63
2023/08/04 11:55:53;;;;;;;3.85;1.95;;;;;;;;;;5102799;27;20055;-64
2023/08/04 11:58:28;;;;;;;3.58;1.85;;;;;;;;;;5099329;28;20055;-63
2023/08/04 12:00:55;;;;;;;3.42;1.70;;;;;;;;;;5110324;28;20403;-63
2023/08/04 12:03:29;;;;;;;2.60;1.65;;;;;;;;;;5109880;28;20047;-64
2023/08/04 12:05:56;;;;;;;3.40;1.50;;;;;;;;;;5095149;28;20047;-64
2023/08/04 12:08:23;;;;;;;2.78;1.50;;;;;;;;;;5104780;27;20054;-64
2023/08/04 12:11:02;;;;;;;2.15;1.42;;;;;;;;;;5105048;28;20450;-63
2023/08/04 12:13:38;;;;;;;3.53;1.63;;;;;;;;;;5104908;28;20447;-63
2023/08/04 12:16:04;;;;;;;3.13;1.60;;;;;;;;;;5106149;28;20052;-64
2023/08/04 12:18:31;;;;;;;2.70;1.40;;;;;;;;;;5095872;28;20055;-63
2023/08/04 12:20:58;;;;;;;3.13;1.30;;;;;;;;;;5123723;27;20058;-63
2023/08/04 12:23:26;;;;;;;2.25;1.30;;;;;;;;;;5122299;27;20050;-63
2023/08/04 12:25:55;;;;;;;2.28;1.23;;;;;;;;;;5106896;28;20058;-64
2023/08/04 12:28:24;;;;;;;3.42;1.52;;;;;;;;;;5101703;28;20051;-64
2023/08/04 12:30:52;;;;;;;3.28;1.30;;;;;;;;;;5108276;28;20047;-63
2023/08/04 12:33:19;;;;;;;3.20;1.40;;;;;;;;;;5101144;28;20059;-63
2023/08/04 12:35:47;;;;;;;1.75;1.20;;;;;;;;;;5100335;28;20387;-64
2023/08/04 12:38:14;;;;;;;2.13;1.30;;;;;;;;;;5110828;28;20396;-64
2023/08/04 12:40:43;;;;;;;2.50;1.30;;;;;;;;;;5104482;27;20050;-63
2023/08/04 12:43:10;;;;;;;2.97;1.40;;;;;;;;;;5110925;28;20365;-63
2023/08/04 12:45:39;;;;;;;3.85;1.20;;;;;;;;;;5102839;28;20067;-63
2023/08/04 12:48:06;;;;;;;2.40;1.50;;;;;;;;;;5101732;28;20047;-63
2023/08/04 12:50:33;;;;;;;2.17;1.15;;;;;;;;;;5106584;28;20044;-64
2023/08/04 12:52:59;;;;;;;3.88;1.20;;;;;;;;;;5110250;28;20056;-64
2023/08/04 12:55:27;;;;;;;1.92;1.38;;;;;;;;;;5088337;28;20056;-63
2023/08/04 12:57:54;;;;;;;3.07;1.37;;;;;;;;;;5104929;28;20052;-63
2023/08/04 13:00:20;;;;;;;2.00;1.00;;;;;;;;;;5097945;28;20166;-63
2023/08/04 13:02:48;;;;;;;4.63;1.20;;;;;;;;;;5104192;28;20122;-63
2023/08/04 13:05:15;;;;;;;2.08;1.35;;;;;;;;;;5103131;28;20485;-64
2023/08/04 13:07:42;;;;;;;2.60;1.85;;;;;;;;;;5109637;28;20480;-63
2023/08/04 13:10:09;;;;;;;1.92;1.20;;;;;;;;;;5104024;28;20048;-63
2023/08/04 13:12:36;;;;;;;3.08;1.23;;;;;;;;;;5108100;28;20057;-64
2023/08/04 13:15:04;;;;;;;3.20;1.40;;;;;;;;;;5104880;28;20428;-63
2023/08/04 13:17:35;;;;;;;2.80;1.45;;;;;;;;;;5108480;28;20078;-63
2023/08/04 13:20:08;;;;;;;2.88;1.75;;;;;;;;;;5108634;28;20048;-63
2023/08/04 13:22:37;;;;;;;3.10;1.20;;;;;;;;;;5110395;28;20057;-60
2023/08/04 13:25:06;;;;;;;2.17;1.38;;;;;;;;;;5105461;28;20051;-60
2023/08/04 13:27:33;;;;;;;2.10;1.20;;;;;;;;;;5103312;28;20047;-60
2023/08/04 13:30:00;;;;;;;2.63;1.25;;;;;;;;;;5109881;28;20059;-60
2023/08/04 13:32:27;;;;;;;3.10;0.85;;;;;;;;;;5102812;28;20059;-61
2023/08/04 13:34:54;;;;;;;2.97;1.10;;;;;;;;;;5104839;28;20051;-60
2023/08/04 13:37:23;;;;;;;1.63;0.90;;;;;;;;;;5103470;28;20411;-63
2023/08/04 13:39:50;;;;;;;2.65;1.17;;;;;;;;;;5103171;28;20071;-62
2023/08/04 13:42:17;;;;;;;2.90;1.58;;;;;;;;;;5095190;28;20404;-46
2023/08/04 13:44:44;;;;;;;2.85;1.65;;;;;;;;;;5111800;28;20044;-45
2023/08/04 13:47:12;;;;;;;3.55;1.60;;;;;;;;;;5101165;28;20052;-46
2023/08/04 13:49:39;;;;;;;2.03;1.38;;;;;;;;;;5094418;28;20067;-45
2023/08/04 13:52:09;;;;;;;2.65;1.38;;;;;;;;;;5100040;28;20484;-46
2023/08/04 13:54:39;;;;;;;2.80;1.50;;;;;;;;;;5107642;28;20054;-44
2023/08/04 13:57:06;;;;;;;2.28;1.50;;;;;;;;;;5103339;28;20503;-44
2023/08/04 13:59:33;;;;;;;2.92;1.80;;;;;;;;;;5097497;28;20048;-44
2023/08/04 14:02:00;;;;;;;3.08;1.55;;;;;;;;;;5105879;28;20487;-43
2023/08/04 14:04:27;;;;;;;3.50;1.70;;;;;;;;;;5103394;28;20055;-43
2023/08/04 14:06:53;;;;;;;3.08;1.58;;;;;;;;;;5103907;28;20075;-43
2023/08/04 14:09:22;;;;;;;5.22;1.98;;;;;;;;;;5103523;28;20052;-44
2023/08/04 14:11:50;;;;;;;3.53;1.90;;;;;;;;;;5100438;28;20074;-44
2023/08/04 14:14:17;;;;;;;3.80;1.90;;;;;;;;;;5108114;28;20055;-44
2023/08/04 14:16:46;;;;;;;2.60;1.73;;;;;;;;;;5101075;28;20496;-44
2023/08/04 14:19:13;;;;;;;3.10;1.88;;;;;;;;;;5106395;28;20055;-44
2023/08/04 14:21:40;;;;;;;2.80;1.90;;;;;;;;;;5094376;28;20059;-43
2023/08/04 14:24:09;;;;;;;3.75;2.08;;;;;;;;;;5111561;28;20058;-61
2023/08/04 14:26:39;;;;;;;3.20;1.90;;;;;;;;;;5106607;27;20062;-60
2023/08/04 14:29:08;;;;;;;2.95;1.80;;;;;;;;;;5102552;27;20060;-60
2023/08/04 14:31:34;;;;;;;2.72;1.73;;;;;;;;;;5100920;28;20404;-60
2023/08/04 14:34:01;;;;;;;5.07;2.22;;;;;;;;;;5114753;28;20451;-60
2023/08/04 14:36:29;;;;;;;5.85;3.03;;;;;;;;;;5114042;28;20052;-60